createdAt,value
2018-09-15T00:00:07.651Z,5.70
2018-09-15T00:01:07.526Z,6.40
2018-09-15T00:02:07.402Z,5.50
2018-09-15T00:03:07.278Z,5.30
2018-09-15T00:04:07.158Z,6.20
2018-09-15T00:05:07.034Z,5.60
2018-09-15T00:06:06.909Z,6.00
2018-09-15T00:07:06.788Z,5.60
2018-09-15T00:08:06.665Z,6.60
2018-09-15T00:09:06.544Z,5.60
2018-09-15T00:10:06.420Z,5.90
2018-09-15T00:11:06.315Z,5.80
2018-09-15T00:12:06.173Z,5.90
2018-09-15T00:13:06.050Z,5.80
2018-09-15T00:14:05.926Z,6.40
2018-09-15T00:15:05.804Z,6.80
2018-09-15T00:16:05.681Z,7.00
2018-09-15T00:17:05.558Z,5.50
2018-09-15T00:18:05.432Z,7.90
2018-09-15T00:19:05.310Z,5.50
2018-09-15T00:20:05.190Z,5.20
2018-09-15T00:21:05.063Z,5.90
2018-09-15T00:22:04.939Z,6.30
2018-09-15T00:23:04.832Z,5.80
2018-09-15T00:24:04.692Z,5.30
2018-09-15T00:25:04.568Z,6.30
2018-09-15T00:26:04.448Z,5.70
2018-09-15T00:27:04.321Z,5.80
2018-09-15T00:28:04.199Z,5.80
2018-09-15T00:29:04.080Z,5.90
2018-09-15T00:30:03.952Z,7.20
2018-09-15T00:31:03.828Z,6.10
2018-09-15T00:32:03.703Z,6.00
2018-09-15T00:33:03.583Z,5.70
2018-09-15T00:34:03.457Z,5.70
2018-09-15T00:35:03.333Z,5.60
2018-09-15T00:36:03.211Z,6.40
2018-09-15T00:37:03.089Z,7.90
2018-09-15T00:38:02.961Z,7.60
2018-09-15T00:39:02.934Z,6.10
2018-09-15T00:40:02.717Z,6.30
2018-09-15T00:41:02.593Z,6.00
2018-09-15T00:42:02.467Z,6.60
2018-09-15T00:43:02.344Z,6.00
2018-09-15T00:44:02.220Z,6.10
2018-09-15T00:45:02.101Z,6.70
2018-09-15T00:46:01.973Z,8.50
2018-09-15T00:47:01.848Z,6.60
2018-09-15T00:48:01.728Z,6.80
2018-09-15T00:49:01.603Z,6.10
2018-09-15T00:50:01.482Z,6.90
2018-09-15T00:51:01.356Z,6.20
2018-09-15T00:52:01.232Z,7.10
2018-09-15T00:53:01.107Z,7.50
2018-09-15T00:54:00.983Z,6.00
2018-09-15T00:55:00.859Z,6.00
2018-09-15T00:56:00.738Z,6.80
2018-09-15T00:57:00.614Z,6.90
2018-09-15T00:58:00.487Z,8.20
2018-09-15T00:59:00.363Z,6.00
2018-09-15T01:00:00.241Z,7.80
2018-09-15T01:01:00.116Z,6.10
2018-09-15T01:01:59.993Z,7.10
2018-09-15T01:02:59.868Z,7.00
2018-09-15T01:03:59.746Z,6.80
2018-09-15T01:04:59.620Z,7.90
2018-09-15T01:05:59.495Z,7.40
2018-09-15T01:06:59.372Z,7.30
2018-09-15T01:07:59.248Z,8.20
2018-09-15T01:08:59.125Z,8.30
2018-09-15T01:09:59.000Z,8.30
2018-09-15T01:10:58.878Z,7.80
2018-09-15T01:11:58.757Z,6.90
2018-09-15T01:12:58.629Z,8.60
2018-09-15T01:13:58.572Z,6.60
2018-09-15T01:14:58.381Z,7.10
2018-09-15T01:15:58.255Z,9.60
2018-09-15T01:16:58.133Z,8.20
2018-09-15T01:17:58.009Z,6.90
2018-09-15T01:18:57.883Z,6.70
2018-09-15T01:19:57.778Z,6.50
2018-09-15T01:20:57.638Z,6.30
2018-09-15T01:21:57.511Z,8.70
2018-09-15T01:22:57.387Z,7.10
2018-09-15T01:23:57.263Z,7.10
2018-09-15T01:24:57.142Z,6.90
2018-09-15T01:25:57.022Z,6.50
2018-09-15T01:26:56.892Z,7.10
2018-09-15T01:27:56.767Z,7.80
2018-09-15T01:28:56.644Z,9.40
2018-09-15T01:29:56.517Z,7.30
2018-09-15T01:30:56.396Z,7.50
2018-09-15T01:31:56.272Z,7.40
2018-09-15T01:32:56.146Z,7.30
2018-09-15T01:33:56.022Z,8.50
2018-09-15T01:34:55.899Z,7.80
2018-09-15T01:35:55.775Z,8.70
2018-09-15T01:36:55.651Z,6.90
2018-09-15T01:37:55.524Z,7.70
2018-09-15T01:38:55.400Z,6.50
2018-09-15T01:39:55.277Z,6.90
2018-09-15T01:40:55.154Z,8.10
2018-09-15T01:41:55.028Z,6.60
2018-09-15T01:42:54.907Z,9.60
2018-09-15T01:43:54.782Z,6.40
2018-09-15T01:44:54.657Z,7.60
2018-09-15T01:45:54.531Z,6.80
2018-09-15T01:46:54.406Z,7.40
2018-09-15T01:47:54.283Z,7.10
2018-09-15T01:48:54.161Z,7.20
2018-09-15T01:49:54.033Z,6.30
2018-09-15T01:50:53.908Z,7.00
2018-09-15T01:51:53.786Z,6.40
2018-09-15T01:52:53.676Z,7.50
2018-09-15T01:53:53.538Z,6.40
2018-09-15T01:54:53.417Z,5.70
2018-09-15T01:55:53.289Z,6.70
2018-09-15T01:56:53.170Z,6.00
2018-09-15T01:57:53.043Z,5.70
2018-09-15T01:58:52.917Z,6.20
2018-09-15T01:59:52.795Z,6.40
2018-09-15T02:00:52.670Z,5.90
2018-09-15T02:01:52.545Z,5.70
2018-09-15T02:02:52.420Z,6.50
2018-09-15T02:03:52.295Z,7.30
2018-09-15T02:04:52.175Z,5.20
2018-09-15T02:05:52.049Z,7.40
2018-09-15T02:06:51.925Z,5.80
2018-09-15T02:07:51.804Z,6.90
2018-09-15T02:08:51.678Z,5.20
2018-09-15T02:09:51.554Z,5.50
2018-09-15T02:10:51.428Z,5.30
2018-09-15T02:11:51.308Z,6.30
2018-09-15T02:12:51.181Z,6.10
2018-09-15T02:13:51.060Z,6.80
2018-09-15T02:14:50.934Z,5.30
2018-09-15T02:15:50.814Z,5.80
2018-09-15T02:16:50.688Z,5.60
2018-09-15T02:17:50.562Z,5.30
2018-09-15T02:18:50.440Z,5.90
2018-09-15T02:19:50.316Z,4.90
2018-09-15T02:20:50.201Z,6.20
2018-09-15T02:21:50.067Z,5.60
2018-09-15T02:22:49.986Z,5.50
2018-09-15T02:23:49.820Z,6.20
2018-09-15T02:24:49.695Z,5.90
2018-09-15T02:25:49.572Z,5.50
2018-09-15T02:26:49.448Z,6.10
2018-09-15T02:27:49.325Z,5.40
2018-09-15T02:28:49.228Z,6.00
2018-09-15T02:29:49.074Z,5.90
2018-09-15T02:30:48.953Z,5.80
2018-09-15T02:31:48.830Z,7.90
2018-09-15T02:32:48.706Z,7.60
2018-09-15T02:33:48.580Z,5.80
2018-09-15T02:34:48.457Z,6.00
2018-09-15T02:35:48.331Z,5.90
2018-09-15T02:36:48.210Z,5.70
2018-09-15T02:37:48.084Z,5.80
2018-09-15T02:38:47.962Z,6.40
2018-09-15T02:39:47.837Z,6.00
2018-09-15T02:40:47.715Z,5.50
2018-09-15T02:41:47.588Z,5.60
2018-09-15T02:42:47.463Z,6.20
2018-09-15T02:43:47.339Z,6.00
2018-09-15T02:44:47.218Z,6.30
2018-09-15T02:45:47.099Z,5.30
2018-09-15T02:46:46.972Z,5.50
2018-09-15T02:47:46.847Z,5.80
2018-09-15T02:48:46.721Z,5.10
2018-09-15T02:49:46.597Z,5.10
2018-09-15T02:50:46.475Z,5.40
2018-09-15T02:51:46.354Z,5.40
2018-09-15T02:52:46.227Z,6.40
2018-09-15T02:53:46.103Z,6.00
2018-09-15T02:54:46.033Z,6.40
2018-09-15T02:55:45.858Z,5.90
2018-09-15T02:56:45.733Z,5.80
2018-09-15T02:57:45.609Z,6.80
2018-09-15T02:58:45.484Z,6.00
2018-09-15T02:59:45.368Z,6.00
2018-09-15T03:00:45.238Z,5.30
2018-09-15T03:01:45.115Z,5.90
2018-09-15T03:02:44.989Z,5.50
2018-09-15T03:03:44.866Z,5.50
2018-09-15T03:04:44.742Z,5.80
2018-09-15T03:05:44.622Z,5.50
2018-09-15T03:06:44.494Z,5.10
2018-09-15T03:07:44.372Z,5.90
2018-09-15T03:08:44.251Z,5.70
2018-09-15T03:09:44.124Z,5.30
2018-09-15T03:10:44.021Z,5.00
2018-09-15T03:11:43.880Z,5.60
2018-09-15T03:12:43.754Z,5.00
2018-09-15T03:13:43.628Z,7.10
2018-09-15T03:14:43.505Z,5.60
2018-09-15T03:15:43.384Z,5.70
2018-09-15T03:16:43.257Z,5.60
2018-09-15T03:17:43.134Z,5.10
2018-09-15T03:18:43.012Z,5.60
2018-09-15T03:19:42.887Z,6.80
2018-09-15T03:20:42.765Z,6.60
2018-09-15T03:21:42.639Z,5.30
2018-09-15T03:22:42.514Z,7.70
2018-09-15T03:23:42.393Z,5.50
2018-09-15T03:24:42.270Z,6.20
2018-09-15T03:25:42.143Z,6.10
2018-09-15T03:26:42.019Z,7.20
2018-09-15T03:27:41.895Z,5.80
2018-09-15T03:28:41.771Z,5.60
2018-09-15T03:29:41.648Z,6.30
2018-09-15T03:30:41.524Z,6.30
2018-09-15T03:31:41.399Z,6.40
2018-09-15T03:32:41.277Z,5.80
2018-09-15T03:33:41.154Z,6.20
2018-09-15T03:34:41.026Z,6.10
2018-09-15T03:35:40.903Z,6.40
2018-09-15T03:36:40.783Z,7.70
2018-09-15T03:37:40.654Z,6.00
2018-09-15T03:38:40.530Z,6.40
2018-09-15T03:39:40.406Z,6.60
2018-09-15T03:40:40.282Z,6.90
2018-09-15T03:41:40.301Z,6.20
2018-09-15T03:42:40.033Z,6.10
2018-09-15T03:43:39.910Z,6.70
2018-09-15T03:44:39.786Z,6.30
2018-09-15T03:45:39.662Z,6.50
2018-09-15T03:46:39.537Z,6.00
2018-09-15T03:47:39.413Z,6.10
2018-09-15T03:48:39.289Z,7.20
2018-09-15T03:49:39.167Z,5.70
2018-09-15T03:50:39.038Z,6.80
2018-09-15T03:51:38.917Z,6.40
2018-09-15T03:52:38.793Z,5.90
2018-09-15T03:53:38.666Z,6.40
2018-09-15T03:54:38.544Z,8.20
2018-09-15T03:55:38.419Z,5.40
2018-09-15T03:56:38.295Z,5.80
2018-09-15T03:57:38.171Z,6.10
2018-09-15T03:58:38.048Z,5.80
2018-09-15T03:59:37.923Z,6.20
2018-09-15T04:00:37.799Z,6.40
2018-09-15T04:01:37.675Z,6.90
2018-09-15T04:02:37.553Z,6.70
2018-09-15T04:03:37.427Z,7.90
2018-09-15T04:04:37.305Z,6.20
2018-09-15T04:05:37.181Z,6.40
2018-09-15T04:06:37.056Z,6.30
2018-09-15T04:07:36.931Z,5.50
2018-09-15T04:08:36.812Z,7.00
2018-09-15T04:09:36.682Z,7.00
2018-09-15T04:10:36.558Z,6.70
2018-09-15T04:11:36.435Z,6.80
2018-09-15T04:12:36.311Z,6.70
2018-09-15T04:13:36.186Z,6.90
2018-09-15T04:14:36.063Z,6.50
2018-09-15T04:15:35.940Z,6.70
2018-09-15T04:16:35.814Z,8.40
2018-09-15T04:17:35.688Z,6.60
2018-09-15T04:18:35.565Z,7.50
2018-09-15T04:19:35.441Z,6.80
2018-09-15T04:20:35.320Z,5.70
2018-09-15T04:21:35.191Z,6.90
2018-09-15T04:22:35.071Z,6.30
2018-09-15T04:23:34.943Z,6.00
2018-09-15T04:24:34.824Z,7.50
2018-09-15T04:25:34.694Z,5.90
2018-09-15T04:26:34.574Z,5.70
2018-09-15T04:27:34.448Z,6.40
2018-09-15T04:28:34.348Z,6.50
2018-09-15T04:29:34.199Z,6.10
2018-09-15T04:30:34.074Z,6.20
2018-09-15T04:31:33.952Z,6.00
2018-09-15T04:32:33.828Z,5.30
2018-09-15T04:33:33.703Z,7.10
2018-09-15T04:34:33.579Z,5.50
2018-09-15T04:35:33.454Z,5.40
2018-09-15T04:36:33.331Z,6.60
2018-09-15T04:37:33.205Z,5.40
2018-09-15T04:38:33.085Z,6.10
2018-09-15T04:39:32.959Z,6.70
2018-09-15T04:40:32.832Z,6.80
2018-09-15T04:41:32.714Z,5.80
2018-09-15T04:42:32.584Z,5.60
2018-09-15T04:43:32.462Z,6.20
2018-09-15T04:44:32.338Z,7.20
2018-09-15T04:45:32.215Z,6.50
2018-09-15T04:46:32.090Z,5.70
2018-09-15T04:47:31.966Z,6.90
2018-09-15T04:48:31.840Z,6.60
2018-09-15T04:49:31.715Z,5.40
2018-09-15T04:50:31.592Z,5.20
2018-09-15T04:51:31.467Z,6.80
2018-09-15T04:52:31.394Z,5.70
2018-09-15T04:53:31.219Z,6.00
2018-09-15T04:54:31.094Z,5.70
2018-09-15T04:55:30.971Z,6.10
2018-09-15T04:56:30.849Z,6.40
2018-09-15T04:57:30.721Z,5.20
2018-09-15T04:58:30.597Z,5.60
2018-09-15T04:59:30.474Z,5.80
2018-09-15T05:00:30.350Z,6.30
2018-09-15T05:01:30.223Z,6.00
2018-09-15T05:02:30.099Z,8.30
2018-09-15T05:03:29.977Z,5.80
2018-09-15T05:04:29.852Z,5.70
2018-09-15T05:05:29.727Z,5.20
2018-09-15T05:06:29.647Z,5.80
2018-09-15T05:07:29.479Z,6.60
2018-09-15T05:08:29.354Z,5.70
2018-09-15T05:09:29.229Z,5.20
2018-09-15T05:10:29.113Z,6.20
2018-09-15T05:11:28.984Z,6.00
2018-09-15T05:12:28.869Z,5.70
2018-09-15T05:13:28.736Z,5.50
2018-09-15T05:14:28.610Z,5.00
2018-09-15T05:15:28.488Z,5.20
2018-09-15T05:16:28.362Z,7.00
2018-09-15T05:17:28.237Z,5.20
2018-09-15T05:18:28.111Z,6.80
2018-09-15T05:19:28.000Z,5.20
2018-09-15T05:20:27.864Z,5.40
2018-09-15T05:21:27.740Z,5.30
2018-09-15T05:22:27.617Z,7.50
2018-09-15T05:23:27.494Z,5.70
2018-09-15T05:24:27.367Z,5.10
2018-09-15T05:25:27.243Z,6.30
2018-09-15T05:26:27.124Z,7.50
2018-09-15T05:27:26.996Z,8.10
2018-09-15T05:28:26.871Z,7.60
2018-09-15T05:29:26.745Z,6.30
2018-09-15T05:30:26.622Z,6.90
2018-09-15T05:31:26.552Z,6.50
2018-09-15T05:32:26.372Z,5.90
2018-09-15T05:33:26.247Z,5.30
2018-09-15T05:34:26.124Z,5.90
2018-09-15T05:35:25.999Z,5.50
2018-09-15T05:36:25.876Z,6.50
2018-09-15T05:37:25.752Z,5.50
2018-09-15T05:38:25.626Z,5.80
2018-09-15T05:39:25.502Z,5.30
2018-09-15T05:40:25.380Z,5.60
2018-09-15T05:41:25.257Z,7.60
2018-09-15T05:42:25.129Z,5.70
2018-09-15T05:43:25.008Z,6.60
2018-09-15T05:44:24.882Z,5.40
2018-09-15T05:45:24.756Z,6.60
2018-09-15T05:46:24.631Z,5.30
2018-09-15T05:47:24.507Z,5.30
2018-09-15T05:48:24.386Z,6.40
2018-09-15T05:49:24.257Z,6.60
2018-09-15T05:50:24.134Z,6.10
2018-09-15T05:51:24.015Z,6.00
2018-09-15T05:52:23.886Z,6.50
2018-09-15T05:53:23.765Z,6.00
2018-09-15T05:54:23.635Z,6.70
2018-09-15T05:55:23.514Z,5.80
2018-09-15T05:56:23.389Z,5.80
2018-09-15T05:57:23.266Z,6.40
2018-09-15T05:58:23.173Z,6.00
2018-09-15T05:59:23.017Z,5.40
2018-09-15T06:00:22.948Z,5.30
2018-09-15T06:01:22.767Z,7.70
2018-09-15T06:02:22.643Z,6.30
2018-09-15T06:03:22.517Z,5.30
2018-09-15T06:04:22.393Z,6.20
2018-09-15T06:05:22.268Z,5.30
2018-09-15T06:06:22.146Z,5.80
2018-09-15T06:07:22.021Z,5.50
2018-09-15T06:08:21.896Z,6.00
2018-09-15T06:09:21.779Z,4.90
2018-09-15T06:10:21.649Z,6.80
2018-09-15T06:11:21.523Z,5.30
2018-09-15T06:12:21.401Z,6.40
2018-09-15T06:13:21.293Z,5.50
2018-09-15T06:14:21.152Z,5.40
2018-09-15T06:15:21.029Z,5.70
2018-09-15T06:16:20.903Z,6.10
2018-09-15T06:17:20.784Z,5.40
2018-09-15T06:18:20.656Z,4.80
2018-09-15T06:19:20.536Z,4.90
2018-09-15T06:20:20.409Z,5.90
2018-09-15T06:21:20.285Z,6.10
2018-09-15T06:22:20.158Z,5.20
2018-09-15T06:23:20.036Z,5.50
2018-09-15T06:24:19.911Z,5.20
2018-09-15T06:25:19.794Z,5.00
2018-09-15T06:26:19.667Z,5.50
2018-09-15T06:27:19.542Z,5.10
2018-09-15T06:28:19.431Z,5.10
2018-09-15T06:29:19.295Z,6.30
2018-09-15T06:30:19.169Z,5.00
2018-09-15T06:31:19.049Z,4.90
2018-09-15T06:32:18.925Z,4.90
2018-09-15T06:33:19.329Z,5.00
2018-09-15T06:34:18.677Z,4.90
2018-09-15T06:35:18.557Z,4.90
2018-09-15T06:36:18.433Z,4.80
2018-09-15T06:37:18.304Z,5.20
2018-09-15T06:38:18.184Z,5.60
2018-09-15T06:39:18.121Z,5.40
2018-09-15T06:40:17.940Z,4.70
2018-09-15T06:41:17.812Z,4.80
2018-09-15T06:42:17.693Z,6.10
2018-09-15T06:43:17.567Z,5.10
2018-09-15T06:44:17.446Z,5.90
2018-09-15T06:45:17.320Z,4.50
2018-09-15T06:46:17.196Z,4.70
2018-09-15T06:47:17.073Z,6.40
2018-09-15T06:48:16.948Z,4.70
2018-09-15T06:49:16.826Z,4.70
2018-09-15T06:50:16.702Z,4.10
2018-09-15T06:51:16.638Z,4.70
2018-09-15T06:52:16.455Z,4.30
2018-09-15T06:53:16.334Z,5.00
2018-09-15T06:54:16.210Z,4.30
2018-09-15T06:55:16.128Z,5.10
2018-09-15T06:56:15.964Z,6.20
2018-09-15T06:57:15.858Z,5.00
2018-09-15T06:58:15.713Z,5.00
2018-09-15T06:59:16.467Z,4.60
2018-09-15T07:00:15.570Z,5.10
2018-09-15T07:01:15.457Z,4.00
2018-09-15T07:02:15.343Z,4.30
2018-09-15T07:03:15.098Z,4.30
2018-09-15T07:04:14.977Z,4.50
2018-09-15T07:05:14.855Z,4.30
2018-09-15T07:06:14.732Z,5.50
2018-09-15T07:07:14.621Z,5.10
2018-09-15T07:08:14.486Z,4.90
2018-09-15T07:09:14.362Z,4.30
2018-09-15T07:10:14.240Z,5.40
2018-09-15T07:11:14.119Z,4.20
2018-09-15T07:12:13.997Z,5.00
2018-09-15T07:13:13.873Z,5.30
2018-09-15T07:14:13.753Z,4.50
2018-09-15T07:15:13.629Z,4.40
2018-09-15T07:16:13.505Z,4.20
2018-09-15T07:17:13.384Z,4.10
2018-09-15T07:18:13.261Z,4.20
2018-09-15T07:19:13.140Z,3.90
2018-09-15T07:20:13.044Z,4.40
2018-09-15T07:21:12.893Z,5.00
2018-09-15T07:22:12.771Z,4.10
2018-09-15T07:23:12.650Z,4.30
2018-09-15T07:24:12.528Z,3.70
2018-09-15T07:25:12.423Z,3.60
2018-09-15T07:26:12.287Z,3.70
2018-09-15T07:27:12.162Z,4.00
2018-09-15T07:28:12.104Z,4.10
2018-09-15T07:29:11.917Z,3.80
2018-09-15T07:30:11.834Z,3.40
2018-09-15T07:31:11.805Z,3.40
2018-09-15T07:32:11.554Z,4.10
2018-09-15T07:33:11.430Z,4.90
2018-09-15T07:34:11.310Z,4.30
2018-09-15T07:35:11.191Z,4.10
2018-09-15T07:36:11.078Z,4.00
2018-09-15T07:37:10.944Z,3.80
2018-09-15T07:38:10.823Z,4.10
2018-09-15T07:39:10.702Z,3.70
2018-09-15T07:40:10.584Z,4.70
2018-09-15T07:41:10.458Z,5.00
2018-09-15T07:42:10.337Z,4.60
2018-09-15T07:43:10.217Z,3.70
2018-09-15T07:44:10.104Z,3.70
2018-09-15T07:45:09.972Z,5.30
2018-09-15T07:46:09.851Z,4.90
2018-09-15T07:47:09.737Z,4.00
2018-09-15T07:48:09.614Z,5.20
2018-09-15T07:49:09.488Z,4.30
2018-09-15T07:50:09.367Z,3.80
2018-09-15T07:51:09.249Z,5.60
2018-09-15T07:52:09.126Z,4.40
2018-09-15T07:53:09.004Z,5.20
2018-09-15T07:54:08.884Z,4.50
2018-09-15T07:55:08.762Z,5.20
2018-09-15T07:56:08.646Z,3.70
2018-09-15T07:57:08.523Z,4.50
2018-09-15T07:58:08.401Z,4.00
2018-09-15T07:59:08.282Z,4.10
2018-09-15T08:00:08.161Z,4.90
2018-09-15T08:01:08.038Z,3.90
2018-09-15T08:02:07.916Z,4.20
2018-09-15T08:03:07.797Z,4.00
2018-09-15T08:04:07.745Z,3.90
2018-09-15T08:05:07.597Z,4.60
2018-09-15T08:06:07.435Z,4.10
2018-09-15T08:07:07.336Z,4.10
2018-09-15T08:08:07.194Z,3.60
2018-09-15T08:09:07.073Z,5.40
2018-09-15T08:10:06.957Z,4.20
2018-09-15T08:11:06.927Z,4.00
2018-09-15T08:12:06.723Z,6.50
2018-09-15T08:13:06.594Z,4.30
2018-09-15T08:14:06.481Z,4.80
2018-09-15T08:15:06.355Z,4.10
2018-09-15T08:16:06.251Z,4.20
2018-09-15T08:17:06.856Z,4.50
2018-09-15T08:18:05.994Z,4.30
2018-09-15T08:19:05.875Z,4.70
2018-09-15T08:20:05.754Z,5.70
2018-09-15T08:21:05.632Z,4.50
2018-09-15T08:22:05.513Z,5.70
2018-09-15T08:23:05.394Z,5.00
2018-09-15T08:24:05.277Z,5.10
2018-09-15T08:25:05.166Z,4.90
2018-09-15T08:26:05.038Z,4.20
2018-09-15T08:27:04.915Z,4.20
2018-09-15T08:28:04.793Z,4.20
2018-09-15T08:29:04.673Z,4.80
2018-09-15T08:30:04.555Z,4.30
2018-09-15T08:31:04.439Z,4.20
2018-09-15T08:32:04.387Z,5.00
2018-09-15T08:33:04.193Z,4.50
2018-09-15T08:34:04.076Z,4.20
2018-09-15T08:35:03.956Z,5.70
2018-09-15T08:36:03.840Z,5.20
2018-09-15T08:37:03.720Z,5.10
2018-09-15T08:38:03.598Z,4.40
2018-09-15T08:39:03.478Z,4.30
2018-09-15T08:40:03.363Z,5.00
2018-09-15T08:41:03.266Z,4.40
2018-09-15T08:42:03.117Z,5.30
2018-09-15T08:43:02.998Z,4.20
2018-09-15T08:44:02.880Z,4.30
2018-09-15T08:45:02.758Z,4.90
2018-09-15T08:46:02.646Z,4.70
2018-09-15T08:47:02.518Z,4.80
2018-09-15T08:48:02.399Z,4.50
2018-09-15T08:49:02.286Z,6.40
2018-09-15T08:50:02.170Z,4.70
2018-09-15T08:51:02.042Z,4.40
2018-09-15T08:52:01.923Z,4.70
2018-09-15T08:53:01.809Z,4.80
2018-09-15T08:54:01.684Z,5.90
2018-09-15T08:55:01.567Z,5.70
2018-09-15T08:56:01.489Z,5.40
2018-09-15T08:57:01.328Z,5.40
2018-09-15T08:58:01.212Z,5.30
2018-09-15T08:59:01.089Z,5.30
2018-09-15T09:00:00.968Z,5.70
2018-09-15T09:01:00.848Z,6.00
2018-09-15T09:02:00.732Z,6.40
2018-09-15T09:03:00.612Z,6.30
2018-09-15T09:04:00.493Z,5.70
2018-09-15T09:05:00.373Z,5.00
2018-09-15T09:06:00.253Z,5.10
2018-09-15T09:07:00.136Z,6.00
2018-09-15T09:08:00.042Z,5.00
2018-09-15T09:08:59.897Z,5.30
2018-09-15T09:09:59.778Z,5.20
2018-09-15T09:10:59.659Z,4.90
2018-09-15T09:11:59.543Z,5.50
2018-09-15T09:12:59.421Z,4.40
2018-09-15T09:13:59.301Z,4.50
2018-09-15T09:14:59.210Z,5.10
2018-09-15T09:15:59.069Z,5.40
2018-09-15T09:16:58.950Z,4.40
2018-09-15T09:17:58.830Z,4.70
2018-09-15T09:18:58.714Z,4.80
2018-09-15T09:19:58.638Z,5.40
2018-09-15T09:20:58.473Z,5.50
2018-09-15T09:21:58.357Z,5.50
2018-09-15T09:22:58.239Z,5.40
2018-09-15T09:23:58.125Z,5.70
2018-09-15T09:24:58.003Z,5.20
2018-09-15T09:25:57.965Z,5.90
2018-09-15T09:26:57.767Z,5.20
2018-09-15T09:27:57.650Z,5.80
2018-09-15T09:28:57.531Z,5.70
2018-09-15T09:29:57.416Z,5.60
2018-09-15T09:30:57.359Z,5.20
2018-09-15T09:31:57.184Z,5.00
2018-09-15T09:32:57.061Z,5.50
2018-09-15T09:33:56.939Z,5.90
2018-09-15T09:34:56.902Z,5.10
2018-09-15T09:35:56.705Z,5.30
2018-09-15T09:36:56.584Z,5.50
2018-09-15T09:37:56.467Z,5.40
2018-09-15T09:38:56.348Z,5.20
2018-09-15T09:39:56.231Z,5.70
2018-09-15T09:40:56.130Z,5.50
2018-09-15T09:41:55.993Z,5.30
2018-09-15T09:42:55.876Z,5.50
2018-09-15T09:43:56.383Z,5.60
2018-09-15T09:44:55.640Z,5.40
2018-09-15T09:45:55.522Z,6.40
2018-09-15T09:46:55.404Z,5.40
2018-09-15T09:47:55.314Z,5.70
2018-09-15T09:48:55.168Z,5.60
2018-09-15T09:49:55.052Z,5.90
2018-09-15T09:50:54.991Z,5.90
2018-09-15T09:51:54.813Z,5.20
2018-09-15T09:52:54.695Z,5.90
2018-09-15T09:53:54.580Z,6.20
2018-09-15T09:54:54.463Z,5.90
2018-09-15T09:55:54.342Z,5.10
2018-09-15T09:56:54.228Z,5.30
2018-09-15T09:57:54.106Z,5.20
2018-09-15T09:58:53.990Z,5.10
2018-09-15T09:59:53.871Z,5.70
2018-09-15T10:00:53.753Z,5.40
2018-09-15T10:01:53.639Z,4.60
2018-09-15T10:02:53.516Z,4.70
2018-09-15T10:03:53.399Z,4.50
2018-09-15T10:04:53.282Z,4.70
2018-09-15T10:05:53.162Z,5.00
2018-09-15T10:06:53.062Z,5.00
2018-09-15T10:07:52.931Z,5.00
2018-09-15T10:08:52.818Z,5.30
2018-09-15T10:09:52.690Z,5.10
2018-09-15T10:10:52.572Z,5.00
2018-09-15T10:11:52.458Z,4.50
2018-09-15T10:12:52.335Z,4.70
2018-09-15T10:13:52.216Z,5.90
2018-09-15T10:14:52.100Z,5.10
2018-09-15T10:15:52.036Z,4.90
2018-09-15T10:16:52.393Z,5.00
2018-09-15T10:17:51.749Z,4.70
2018-09-15T10:18:51.630Z,4.40
2018-09-15T10:19:51.510Z,5.00
2018-09-15T10:20:51.391Z,4.40
2018-09-15T10:21:51.274Z,5.00
2018-09-15T10:22:51.154Z,4.40
2018-09-15T10:23:51.037Z,4.70
2018-09-15T10:24:51.060Z,4.70
2018-09-15T10:25:50.851Z,4.40
2018-09-15T10:26:50.686Z,4.60
2018-09-15T10:27:50.569Z,4.60
2018-09-15T10:28:50.452Z,4.70
2018-09-15T10:29:50.335Z,4.30
2018-09-15T10:30:50.218Z,5.10
2018-09-15T10:31:50.103Z,4.90
2018-09-15T10:32:50.159Z,6.20
2018-09-15T10:33:49.862Z,4.50
2018-09-15T10:34:49.745Z,5.00
2018-09-15T10:35:49.627Z,4.40
2018-09-15T10:36:49.510Z,4.70
2018-09-15T10:37:49.393Z,4.30
2018-09-15T10:38:49.276Z,4.80
2018-09-15T10:39:49.159Z,4.20
2018-09-15T10:40:49.038Z,4.60
2018-09-15T10:41:48.924Z,3.90
2018-09-15T10:42:48.804Z,4.30
2018-09-15T10:43:48.688Z,4.20
2018-09-15T10:44:48.577Z,4.50
2018-09-15T10:45:48.508Z,4.70
2018-09-15T10:46:48.488Z,6.00
2018-09-15T10:47:48.220Z,4.10
2018-09-15T10:48:48.101Z,4.70
2018-09-15T10:49:47.982Z,4.70
2018-09-15T10:50:47.870Z,5.10
2018-09-15T10:51:47.751Z,4.00
2018-09-15T10:52:47.632Z,4.40
2018-09-15T10:53:47.515Z,4.70
2018-09-15T10:54:47.409Z,4.00
2018-09-15T10:55:47.287Z,3.60
2018-09-15T10:56:47.163Z,3.80
2018-09-15T10:57:47.046Z,3.80
2018-09-15T10:58:46.931Z,4.20
2018-09-15T10:59:46.815Z,4.10
2018-09-15T11:00:46.768Z,4.10
2018-09-15T11:01:46.580Z,3.50
2018-09-15T11:02:46.465Z,3.40
2018-09-15T11:03:46.348Z,3.80
2018-09-15T11:04:46.231Z,4.30
2018-09-15T11:05:46.139Z,3.60
2018-09-15T11:06:46.000Z,3.50
2018-09-15T11:07:45.885Z,3.30
2018-09-15T11:08:45.767Z,3.60
2018-09-15T11:09:45.653Z,3.80
2018-09-15T11:10:45.536Z,3.70
2018-09-15T11:11:45.420Z,4.00
2018-09-15T11:12:45.301Z,2.90
2018-09-15T11:13:45.233Z,3.30
2018-09-15T11:14:45.082Z,3.40
2018-09-15T11:15:44.956Z,3.50
2018-09-15T11:16:44.845Z,4.10
2018-09-15T11:17:44.725Z,3.50
2018-09-15T11:18:44.620Z,4.60
2018-09-15T11:19:44.497Z,4.10
2018-09-15T11:20:44.389Z,3.70
2018-09-15T11:21:44.259Z,3.70
2018-09-15T11:22:44.189Z,3.70
2018-09-15T11:23:44.032Z,3.50
2018-09-15T11:24:43.915Z,2.90
2018-09-15T11:25:43.803Z,3.00
2018-09-15T11:26:43.684Z,3.80
2018-09-15T11:27:43.608Z,3.10
2018-09-15T11:28:43.521Z,3.00
2018-09-15T11:29:43.335Z,3.20
2018-09-15T11:30:43.218Z,3.40
2018-09-15T11:31:43.103Z,3.70
2018-09-15T11:32:43.500Z,3.80
2018-09-15T11:33:42.870Z,3.60
2018-09-15T11:34:42.753Z,3.30
2018-09-15T11:35:42.640Z,3.20
2018-09-15T11:36:42.523Z,3.70
2018-09-15T11:37:42.405Z,3.80
2018-09-15T11:38:42.291Z,4.10
2018-09-15T11:39:42.174Z,3.50
2018-09-15T11:40:42.058Z,3.50
2018-09-15T11:41:41.944Z,4.30
2018-09-15T11:42:41.831Z,3.70
2018-09-15T11:43:41.748Z,4.10
2018-09-15T11:44:41.596Z,4.40
2018-09-15T11:45:41.479Z,4.20
2018-09-15T11:46:41.368Z,4.30
2018-09-15T11:47:41.249Z,4.20
2018-09-15T11:48:41.133Z,3.80
2018-09-15T11:49:41.018Z,3.60
2018-09-15T11:50:40.902Z,3.90
2018-09-15T11:51:40.787Z,3.90
2018-09-15T11:52:40.667Z,3.60
2018-09-15T11:53:40.562Z,4.60
2018-09-15T11:54:40.440Z,3.70
2018-09-15T11:55:40.348Z,3.90
2018-09-15T11:56:40.319Z,3.70
2018-09-15T11:57:40.090Z,4.40
2018-09-15T11:58:39.976Z,3.80
2018-09-15T11:59:39.863Z,3.70
2018-09-15T12:00:39.741Z,4.20
2018-09-15T12:01:39.627Z,3.50
2018-09-15T12:02:39.511Z,4.20
2018-09-15T12:03:39.394Z,5.40
2018-09-15T12:04:39.275Z,3.80
2018-09-15T12:05:39.161Z,3.50
2018-09-15T12:06:39.060Z,4.20
2018-09-15T12:07:38.933Z,3.40
2018-09-15T12:08:38.812Z,3.90
2018-09-15T12:09:38.696Z,4.00
2018-09-15T12:10:38.575Z,4.50
2018-09-15T12:11:38.458Z,4.00
2018-09-15T12:12:38.342Z,4.00
2018-09-15T12:13:38.224Z,3.50
2018-09-15T12:14:38.109Z,3.90
2018-09-15T12:15:38.131Z,3.70
2018-09-15T12:16:37.873Z,4.60
2018-09-15T12:17:37.758Z,3.40
2018-09-15T12:18:37.695Z,4.20
2018-09-15T12:19:37.540Z,4.10
2018-09-15T12:20:37.405Z,3.90
2018-09-15T12:21:37.345Z,3.40
2018-09-15T12:22:37.174Z,3.60
2018-09-15T12:23:37.075Z,3.30
2018-09-15T12:24:36.937Z,3.90
2018-09-15T12:25:36.820Z,3.50
2018-09-15T12:26:36.710Z,3.40
2018-09-15T12:27:36.588Z,5.20
2018-09-15T12:28:36.470Z,3.90
2018-09-15T12:29:36.352Z,3.60
2018-09-15T12:30:36.239Z,4.50
2018-09-15T12:31:36.119Z,4.50
2018-09-15T12:32:36.003Z,3.70
2018-09-15T12:33:36.061Z,3.40
2018-09-15T12:34:35.767Z,3.60
2018-09-15T12:35:35.648Z,4.60
2018-09-15T12:36:35.533Z,3.80
2018-09-15T12:37:35.417Z,3.70
2018-09-15T12:38:35.299Z,3.90
2018-09-15T12:39:35.265Z,3.50
2018-09-15T12:40:35.062Z,4.30
2018-09-15T12:41:34.954Z,4.00
2018-09-15T12:42:34.830Z,4.40
2018-09-15T12:43:34.725Z,4.70
2018-09-15T12:44:34.594Z,3.80
2018-09-15T12:45:34.749Z,3.80
2018-09-15T12:46:34.365Z,3.90
2018-09-15T12:47:34.247Z,3.30
2018-09-15T12:48:34.233Z,4.20
2018-09-15T12:49:34.008Z,3.70
2018-09-15T12:50:34.309Z,5.00
2018-09-15T12:51:34.646Z,3.60
2018-09-15T12:52:33.698Z,3.90
2018-09-15T12:53:33.541Z,3.60
2018-09-15T12:54:33.427Z,4.10
2018-09-15T12:55:33.307Z,4.30
2018-09-15T12:56:33.189Z,3.70
2018-09-15T12:57:33.072Z,3.80
2018-09-15T12:58:32.956Z,4.00
2018-09-15T12:59:32.841Z,4.10
2018-09-15T13:00:32.723Z,4.50
2018-09-15T13:01:32.607Z,3.90
2018-09-15T13:02:32.488Z,3.60
2018-09-15T13:03:32.390Z,3.60
2018-09-15T13:04:32.256Z,3.60
2018-09-15T13:05:32.144Z,3.80
2018-09-15T13:06:32.072Z,3.50
2018-09-15T13:07:31.907Z,3.60
2018-09-15T13:08:31.788Z,3.40
2018-09-15T13:09:31.678Z,3.50
2018-09-15T13:10:31.560Z,3.80
2018-09-15T13:11:31.442Z,3.10
2018-09-15T13:12:31.327Z,3.80
2018-09-15T13:13:31.213Z,3.60
2018-09-15T13:14:31.103Z,4.00
2018-09-15T13:15:31.076Z,4.40
2018-09-15T13:16:30.865Z,3.40